• Join FlightAware (Why Join?)
  • Login
  • US Flag 
02:02AM EDT


 

Airport Tracker/Info


-or-


 

Live Flight TrackerFlight Track Log ✈ FDX1471 ✈ 20-Jul-2013 ✈ KMEM - KDFW

Flight Track Log - Related Links

Times and Time Zones

All times are in EDT time to prevent confusion due to time zone crossing. See the FDX1471 flight status page for this flight to view local times or setup timezone preferences in your user account.

Time Position Orientation Groundspeed Altitude Reporting Facility
EDT Latitude Longitude Course Direction KTS MPH feet Rate Location/Type
05:15AM 35.0167 -89.9833 212° Southwest 180 207 1,400  Level KMEM
05:17AM 34.9500 -90.0333 212° Southwest 267 307 6,200 2,760 Climbing KMEM
05:18AM 34.9333 -90.1333 259° West 289 333 9,100 1,260 Climbing KMEM
05:19AM 34.9333 -90.2333 270° West 289 333 9,100 60 Level KMEM
05:20AM 34.9303 -90.3114 267° West 287 330 9,200 2,100 Climbing Memphis Center
05:21AM 34.9239 -90.4028 265° West 327 376 12,600 3,120 Climbing Memphis Center
05:22AM 34.9156 -90.5089 265° West 327 376 15,500 2,520 Climbing Memphis Center
05:23AM 34.9069 -90.6408 265° West 357 411 17,700 2,700 Climbing Memphis Center
05:24AM 34.8961 -90.7850 265° West 418 481 20,900 3,120 Climbing Memphis Center
05:25AM 34.8747 -90.9317 260° West 448 516 24,000 2,400 Climbing Memphis Center
05:26AM 34.8531 -91.0683 259° West 453 521 25,800 1,980 Climbing Memphis Center
05:27AM 34.8269 -91.2300 259° West 473 544 28,000 2,100 Climbing Memphis Center
05:28AM 34.8028 -91.3967 260° West 497 572 30,100 2,040 Climbing Memphis Center
05:29AM 34.7742 -91.5708 259° West 513 590 32,100 2,100 Climbing Memphis Center
05:30AM 34.7472 -91.7344 259° West 519 597 34,400 1,860 Climbing Memphis Center
05:31AM 34.7225 -91.9036 260° West 514 592 35,900 780 Climbing Memphis Center
05:32AM 34.6931 -92.0722 258° West 514 592 36,000  Climbing Memphis Center
05:33AM 34.6614 -92.2408 257° West 509 586 36,000  Level Memphis Center
05:34AM 34.6214 -92.4014 253° West 504 580 36,000  Level Memphis Center
05:35AM 34.5725 -92.5792 252° West 504 580 36,000  Level Memphis Center
05:36AM 34.5297 -92.7394 252° West 504 580 36,000  Level Memphis Center
05:37AM 34.4872 -92.8969 252° West 504 580 36,000  Level Memphis Center
05:38AM 34.4442 -93.0569 252° West 510 587 36,000  Level Memphis Center
05:39AM 34.4008 -93.2167 252° West 503 579 36,000  Level Memphis Center
05:40AM 34.3553 -93.3836 252° West 498 573 36,000  Level Memphis Center
05:41AM 34.3206 -93.5158 252° West 503 579 36,000  Level Memphis Center
05:42AM 34.2722 -93.6975 252° West 513 590 36,000  Level Memphis Center
05:43AM 34.2103 -93.9153 251° West 501 577 36,000  Level Fort Worth Center
05:49AM 33.8370 -94.8380 251° West 515 593 36,000  Level FlightAware
05:50AM 33.7950 -94.9380 243° Southwest 516 594 36,000 -120 Level FlightAware
05:50AM 33.7610 -95.0200 244° Southwest 508 585 35,900 -1,440 Descending FlightAware
05:51AM 33.7150 -95.1310 244° Southwest 508 585 34,200 -2,640 Descending FlightAware
05:52AM 33.6690 -95.2420 244° Southwest 505 581 32,100 -2,940 Descending FlightAware
05:52AM 33.6270 -95.3420 243° Southwest 502 578 30,100 -2,820 Descending FlightAware
05:53AM 33.5790 -95.4550 243° Southwest 489 563 28,100 -2,580 Descending FlightAware
05:54AM 33.5410 -95.5460 243° Southwest 478 550 26,600 -2,460 Descending FlightAware
05:54AM 33.4960 -95.6520 243° Southwest 461 531 24,700 -2,520 Descending FlightAware
05:55AM 33.4650 -95.7240 243° Southwest 450 518 23,400 -2,340 Descending FlightAware
05:56AM 33.4230 -95.8230 243° Southwest 436 502 21,700 -2,340 Descending FlightAware
05:56AM 33.3870 -95.9090 243° Southwest 432 497 20,100 -2,340 Descending FlightAware
05:57AM 33.3490 -95.9980 243° Southwest 422 486 18,500 -2,400 Descending FlightAware
05:58AM 33.3120 -96.0840 243° Southwest 411 473 16,800 -2,280 Descending FlightAware
05:58AM 33.2800 -96.1580 243° Southwest 402 463 15,400 -2,340 Descending FlightAware
05:59AM 33.2440 -96.2420 243° Southwest 393 452 13,700 -2,520 Descending FlightAware
06:00AM 33.2230 -96.3240 253° West 389 448 12,100 -2,100 Descending FlightAware
06:01AM 33.1990 -96.4160 253° West 370 426 10,700 -1,440 Descending FlightAware
06:01AM 33.1770 -96.5020 253° West 334 384 10,000 -660 Descending FlightAware
06:02AM 33.1640 -96.5500 252° West 304 350 9,900 -660 Descending FlightAware
06:02AM 33.1530 -96.5940 253° West 293 337 9,400 -1,200 Descending FlightAware
06:03AM 33.1440 -96.6310 254° West 289 333 8,900 -1,380 Descending FlightAware
06:03AM 33.1370 -96.6550 251° West 287 330 8,500 -1,440 Descending FlightAware
06:03AM 33.1260 -96.7000 254° West 285 328 7,800 -1,380 Descending FlightAware
06:04AM 33.1160 -96.7380 253° West 279 321 7,300 -1,380 Descending FlightAware
06:04AM 33.1070 -96.7730 253° West 277 319 6,700 -1,440 Descending FlightAware
06:05AM 33.0970 -96.8120 253° West 274 315 6,100 -1,200 Descending FlightAware
06:05AM 33.0870 -96.8500 253° West 267 307 5,600 -1,080 Descending FlightAware
06:06AM 33.0790 -96.8810 253° West 261 300 5,200 -1,200 Descending FlightAware
06:06AM 33.0760 -96.8940 255° West 260 299 4,900 -1,620 Descending FlightAware
06:06AM 33.0640 -96.9390 252° West 257 296 4,000 -1,380 Descending FlightAware
06:07AM 33.0550 -96.9720 252° West 248 285 3,500 -960 Descending FlightAware
06:07AM 33.0470 -97.0020 252° West 228 262 3,100 -900 Descending FlightAware
06:07AM 33.0380 -97.0150 230° Southwest 215 247 2,900 -900 Descending FlightAware
06:08AM 33.0250 -97.0230 207° Southwest 197 227 2,700 -1,200 Descending FlightAware
06:08AM 32.9800 -97.0250 182° South 165 190 1,800 -1,260 Descending FlightAware
06:09AM 32.9710 -97.0260 185° South 152 175 1,600 -780 Descending FlightAware
06:09AM 32.9520 -97.0260 180° South 145 167 1,300 -420 Descending FlightAware
06:10AM 32.9360 -97.0260 180° South 146 168 1,200 -780 Descending FlightAware
06:10AM 32.9100 -97.0275 180° South 160 184 500 -480 Descending Fort Worth Center
06:11AM 32.8725 -97.0472 204° Southwest 160 184 500  Level Fort Worth Center
06:14AM 32.8968 -97.0380 18° North  Level Estimated
06:21AM 32.8968 -97.0380 118° Southeast  Level Estimated